createdAt,value
2023-04-06T00:00:53.679Z,7.30
2023-04-06T00:03:20.576Z,6.87
2023-04-06T00:05:48.922Z,7.87
2023-04-06T00:08:15.833Z,7.27
2023-04-06T00:10:42.624Z,7.80
2023-04-06T00:13:09.413Z,7.53
2023-04-06T00:15:36.307Z,8.00
2023-04-06T00:18:03.659Z,7.67
2023-04-06T00:20:30.475Z,7.63
2023-04-06T00:22:57.204Z,8.23
2023-04-06T00:25:23.956Z,8.60
2023-04-06T00:27:51.058Z,8.33
2023-04-06T00:30:17.854Z,8.80
2023-04-06T00:32:44.754Z,7.67
2023-04-06T00:35:11.878Z,8.40
2023-04-06T00:37:38.609Z,8.90
2023-04-06T00:40:06.235Z,8.63
2023-04-06T00:42:33.051Z,8.27
2023-04-06T00:45:02.413Z,8.10
2023-04-06T00:47:32.178Z,7.87
2023-04-06T00:49:58.915Z,8.83
2023-04-06T00:52:26.119Z,8.03
2023-04-06T00:54:53.086Z,8.20
2023-04-06T00:57:20.282Z,8.70
2023-04-06T00:59:48.057Z,8.23
2023-04-06T01:02:14.836Z,8.53
2023-04-06T01:04:41.719Z,8.57
2023-04-06T01:07:08.457Z,8.20
2023-04-06T01:09:35.652Z,7.80
2023-04-06T01:12:03.002Z,8.27
2023-04-06T01:14:29.792Z,8.77
2023-04-06T01:17:01.583Z,7.70
2023-04-06T01:19:28.797Z,8.00
2023-04-06T01:21:55.929Z,8.20
2023-04-06T01:24:23.013Z,8.13
2023-04-06T01:26:49.856Z,7.03
2023-04-06T01:29:16.632Z,7.97
2023-04-06T01:31:43.471Z,8.20
2023-04-06T01:34:10.467Z,8.30
2023-04-06T01:36:37.278Z,8.03
2023-04-06T01:39:04.211Z,7.83
2023-04-06T01:41:30.963Z,8.70
2023-04-06T01:43:57.924Z,8.00
2023-04-06T01:46:24.706Z,7.57
2023-04-06T01:48:51.712Z,8.13
2023-04-06T01:51:18.853Z,7.77
2023-04-06T01:53:45.634Z,8.03
2023-04-06T01:56:12.350Z,8.40
2023-04-06T01:58:39.091Z,8.20
2023-04-06T02:01:05.895Z,7.27
2023-04-06T02:03:32.695Z,7.70
2023-04-06T02:05:59.523Z,7.40
2023-04-06T02:08:26.313Z,8.10
2023-04-06T02:10:53.347Z,7.63
2023-04-06T02:13:20.320Z,7.80
2023-04-06T02:15:47.189Z,8.00
2023-04-06T02:18:13.896Z,7.80
2023-04-06T02:20:40.636Z,7.77
2023-04-06T02:23:07.799Z,7.87
2023-04-06T02:25:34.588Z,7.53
2023-04-06T02:28:01.298Z,7.43
2023-04-06T02:30:28.126Z,7.17
2023-04-06T02:32:54.864Z,8.20
2023-04-06T02:35:21.617Z,7.07
2023-04-06T02:37:48.440Z,7.60
2023-04-06T02:40:15.375Z,7.43
2023-04-06T02:42:42.176Z,7.40
2023-04-06T02:45:09.326Z,7.80
2023-04-06T02:47:36.153Z,7.37
2023-04-06T02:50:03.009Z,7.40
2023-04-06T02:52:29.757Z,6.90
2023-04-06T02:54:56.525Z,7.40
2023-04-06T02:57:23.230Z,7.10
2023-04-06T02:59:50.054Z,7.47
2023-04-06T03:02:16.814Z,7.83
2023-04-06T03:04:43.996Z,8.07
2023-04-06T03:07:10.909Z,7.87
2023-04-06T03:09:41.206Z,7.67
2023-04-06T03:12:09.891Z,6.90
2023-04-06T03:14:37.108Z,8.00
2023-04-06T03:17:03.870Z,7.53
2023-04-06T03:19:30.542Z,8.33
2023-04-06T03:21:57.243Z,8.03
2023-04-06T03:24:23.991Z,7.43
2023-04-06T03:26:50.737Z,8.50
2023-04-06T03:29:17.540Z,8.73
2023-04-06T03:31:44.533Z,8.30
2023-04-06T03:34:11.514Z,8.30
2023-04-06T03:36:38.327Z,8.17
2023-04-06T03:39:05.461Z,8.33
2023-04-06T03:41:32.307Z,8.00
2023-04-06T03:43:59.114Z,8.00
2023-04-06T03:46:26.026Z,8.13
2023-04-06T03:48:52.719Z,7.80
2023-04-06T03:51:19.534Z,7.80
2023-04-06T03:53:46.282Z,7.80
2023-04-06T03:56:12.987Z,6.80
2023-04-06T03:58:39.671Z,7.60
2023-04-06T04:01:06.392Z,7.37
2023-04-06T04:03:33.234Z,7.53
2023-04-06T04:06:00.176Z,7.70
2023-04-06T04:08:26.930Z,8.20
2023-04-06T04:10:53.636Z,7.50
2023-04-06T04:13:20.745Z,6.87
2023-04-06T04:15:48.527Z,7.43
2023-04-06T04:18:15.768Z,8.00
2023-04-06T04:20:42.685Z,7.97
2023-04-06T04:23:09.442Z,7.73
2023-04-06T04:25:36.204Z,7.30
2023-04-06T04:28:03.395Z,7.67
2023-04-06T04:30:30.252Z,7.47
2023-04-06T04:32:57.056Z,7.33
2023-04-06T04:35:23.888Z,7.63
2023-04-06T04:37:50.668Z,7.70
2023-04-06T04:40:18.266Z,7.73
2023-04-06T04:42:45.008Z,7.23
2023-04-06T04:45:12.466Z,7.80
2023-04-06T04:47:39.271Z,6.93
2023-04-06T04:50:06.561Z,7.13
2023-04-06T04:52:33.239Z,7.50
2023-04-06T04:54:59.994Z,8.03
2023-04-06T04:57:27.213Z,7.07
2023-04-06T04:59:55.494Z,7.10
2023-04-06T05:02:23.414Z,7.60
2023-04-06T05:04:50.235Z,7.13
2023-04-06T05:07:19.458Z,7.47
2023-04-06T05:09:46.481Z,7.50
2023-04-06T05:12:13.515Z,8.50
2023-04-06T05:14:40.724Z,7.23
2023-04-06T05:17:07.508Z,7.30
2023-04-06T05:19:34.312Z,7.13
2023-04-06T05:22:01.010Z,7.10
2023-04-06T05:24:27.798Z,7.40
2023-04-06T05:26:54.767Z,7.27
2023-04-06T05:29:22.243Z,6.37
2023-04-06T05:31:49.063Z,6.93
2023-04-06T05:34:16.289Z,6.97
2023-04-06T05:36:43.050Z,7.20
2023-04-06T05:39:10.128Z,6.63
2023-04-06T05:41:37.291Z,7.23
2023-04-06T05:44:04.028Z,6.57
2023-04-06T05:46:30.901Z,6.37
2023-04-06T05:48:57.812Z,6.90
2023-04-06T05:51:24.629Z,6.23
2023-04-06T05:53:51.581Z,6.53
2023-04-06T05:56:18.286Z,6.70
2023-04-06T05:58:45.244Z,6.23
2023-04-06T06:01:12.057Z,6.03
2023-04-06T06:03:38.822Z,6.57
2023-04-06T06:06:05.959Z,6.17
2023-04-06T06:08:32.758Z,6.03
2023-04-06T06:10:59.532Z,6.57
2023-04-06T06:13:26.346Z,6.90
2023-04-06T06:15:53.156Z,6.00
2023-04-06T06:18:19.986Z,6.57
2023-04-06T06:20:46.794Z,6.33
2023-04-06T06:23:13.568Z,6.67
2023-04-06T06:25:40.386Z,5.80
2023-04-06T06:28:07.157Z,6.03
2023-04-06T06:30:34.009Z,5.90
2023-04-06T06:33:01.176Z,5.60
2023-04-06T06:35:28.076Z,6.20
2023-04-06T06:37:54.865Z,6.30
2023-04-06T06:40:24.906Z,6.10
2023-04-06T06:42:52.379Z,5.93
2023-04-06T06:45:19.743Z,6.20
2023-04-06T06:47:46.932Z,6.40
2023-04-06T06:50:13.801Z,6.57
2023-04-06T06:52:41.321Z,6.40
2023-04-06T06:55:08.956Z,6.03
2023-04-06T06:57:35.813Z,5.97
2023-04-06T07:00:02.960Z,6.23
2023-04-06T07:02:29.737Z,6.17
2023-04-06T07:04:56.615Z,6.30
2023-04-06T07:07:23.584Z,5.90
2023-04-06T07:09:50.452Z,6.17
2023-04-06T07:12:17.590Z,6.03
2023-04-06T07:14:44.442Z,6.63
2023-04-06T07:17:11.307Z,6.30
2023-04-06T07:19:38.224Z,6.53
2023-04-06T07:22:05.694Z,6.63
2023-04-06T07:24:32.421Z,6.40
2023-04-06T07:27:01.535Z,6.47
2023-04-06T07:29:28.577Z,6.57
2023-04-06T07:31:55.939Z,6.17
2023-04-06T07:34:23.195Z,6.63
2023-04-06T07:36:50.021Z,6.73
2023-04-06T07:39:16.753Z,7.10
2023-04-06T07:41:43.492Z,7.10
2023-04-06T07:44:10.495Z,6.77
2023-04-06T07:46:37.486Z,7.17
2023-04-06T07:49:04.601Z,6.80
2023-04-06T07:51:31.942Z,6.70
2023-04-06T07:53:58.761Z,7.20
2023-04-06T07:56:26.132Z,6.43
2023-04-06T07:58:54.479Z,7.30
2023-04-06T08:01:21.310Z,7.20
2023-04-06T08:03:48.348Z,7.33
2023-04-06T08:06:15.714Z,7.37
2023-04-06T08:08:43.161Z,7.00
2023-04-06T08:11:10.452Z,7.60
2023-04-06T08:13:37.319Z,7.00
2023-04-06T08:16:04.362Z,7.40
2023-04-06T08:18:31.114Z,6.77
2023-04-06T08:20:58.104Z,7.77
2023-04-06T08:23:24.819Z,7.50
2023-04-06T08:25:53.658Z,7.37
2023-04-06T08:28:20.623Z,7.97
2023-04-06T08:30:47.363Z,7.13
2023-04-06T08:33:14.424Z,7.57
2023-04-06T08:35:41.330Z,6.70
2023-04-06T08:38:08.608Z,7.73
2023-04-06T08:40:39.543Z,6.90
2023-04-06T08:43:12.387Z,6.90
2023-04-06T08:45:40.506Z,7.77
2023-04-06T08:48:08.085Z,7.83
2023-04-06T08:50:36.216Z,7.63
2023-04-06T08:53:03.280Z,8.37
2023-04-06T08:55:30.785Z,7.80
2023-04-06T08:57:57.786Z,7.17
2023-04-06T09:00:26.527Z,7.83
2023-04-06T09:02:56.496Z,8.13
2023-04-06T09:05:26.149Z,7.63
2023-04-06T09:07:53.056Z,7.87
2023-04-06T09:10:19.850Z,8.30
2023-04-06T09:12:46.684Z,8.63
2023-04-06T09:15:24.736Z,8.57
2023-04-06T09:17:52.975Z,8.47
2023-04-06T09:20:26.825Z,9.20
2023-04-06T09:22:53.752Z,8.73
2023-04-06T09:25:25.501Z,9.20
2023-04-06T09:28:04.393Z,8.37
2023-04-06T09:30:31.637Z,8.23
2023-04-06T09:33:00.250Z,9.70
2023-04-06T09:35:32.256Z,9.47
2023-04-06T09:37:59.121Z,9.10
2023-04-06T09:40:26.178Z,8.90
2023-04-06T09:42:55.240Z,9.20
2023-04-06T09:45:22.230Z,8.57
2023-04-06T09:47:52.325Z,8.67
2023-04-06T09:50:20.549Z,8.93
2023-04-06T09:52:55.177Z,9.40
2023-04-06T09:55:31.561Z,9.87
2023-04-06T09:58:10.261Z,9.70
2023-04-06T10:00:59.827Z,8.97
2023-04-06T10:03:38.618Z,9.20
2023-04-06T10:06:08.527Z,9.53
2023-04-06T10:08:37.373Z,9.27
2023-04-06T10:11:04.177Z,9.20
2023-04-06T10:13:30.993Z,9.70
2023-04-06T10:16:01.303Z,9.70
2023-04-06T10:18:28.789Z,9.07
2023-04-06T10:21:12.604Z,9.50
2023-04-06T10:23:49.165Z,9.83
2023-04-06T10:26:18.113Z,9.67
2023-04-06T10:28:47.808Z,9.03
2023-04-06T10:31:15.258Z,9.90
2023-04-06T10:33:42.539Z,9.80
2023-04-06T10:36:22.711Z,9.00
2023-04-06T10:38:59.637Z,8.80
2023-04-06T10:41:37.935Z,10.00
2023-04-06T10:44:04.855Z,9.50
2023-04-06T10:46:35.270Z,9.60
2023-04-06T10:49:15.137Z,10.20
2023-04-06T10:51:41.917Z,9.40
2023-04-06T10:54:10.332Z,9.40
2023-04-06T10:56:39.662Z,9.50
2023-04-06T10:59:08.049Z,9.53
2023-04-06T11:01:35.120Z,10.13
2023-04-06T11:04:02.155Z,9.77
2023-04-06T11:06:32.426Z,10.83
2023-04-06T11:08:59.597Z,10.67
2023-04-06T11:11:27.892Z,10.23
2023-04-06T11:14:00.514Z,11.17
2023-04-06T11:16:34.349Z,9.73
2023-04-06T11:19:04.268Z,9.60
2023-04-06T11:21:40.049Z,9.53
2023-04-06T11:24:12.217Z,9.67
2023-04-06T11:26:39.745Z,10.40
2023-04-06T11:29:07.262Z,10.47
2023-04-06T11:31:40.432Z,9.87
2023-04-06T11:34:11.664Z,10.73
2023-04-06T11:36:42.378Z,9.70
2023-04-06T11:39:09.408Z,10.57
2023-04-06T11:41:36.857Z,9.97
2023-04-06T11:44:06.663Z,10.43
2023-04-06T11:46:33.771Z,10.50
2023-04-06T11:49:01.860Z,10.47
2023-04-06T11:51:29.248Z,10.50
2023-04-06T11:53:57.050Z,9.37
2023-04-06T11:56:28.237Z,10.10
2023-04-06T11:59:00.746Z,9.00
2023-04-06T12:01:27.813Z,9.87
2023-04-06T12:03:54.966Z,9.70
2023-04-06T12:06:21.939Z,9.80
2023-04-06T12:08:48.727Z,9.93
2023-04-06T12:11:15.528Z,9.23
2023-04-06T12:13:42.451Z,8.90
2023-04-06T12:16:09.281Z,9.87
2023-04-06T12:18:36.434Z,9.50
2023-04-06T12:21:03.259Z,9.70
2023-04-06T12:23:29.954Z,9.00
2023-04-06T12:25:56.734Z,8.93
2023-04-06T12:28:27.752Z,8.37
2023-04-06T12:30:55.733Z,8.50
2023-04-06T12:33:22.853Z,8.57
2023-04-06T12:35:49.789Z,9.20
2023-04-06T12:38:17.022Z,8.60
2023-04-06T12:40:43.862Z,8.10
2023-04-06T12:43:10.916Z,8.00
2023-04-06T12:45:37.706Z,7.90
2023-04-06T12:48:04.539Z,7.87
2023-04-06T12:50:31.526Z,7.20
2023-04-06T12:52:58.297Z,6.53
2023-04-06T12:55:25.936Z,7.57
2023-04-06T12:57:52.688Z,7.67
2023-04-06T13:00:20.332Z,7.43
2023-04-06T13:02:48.342Z,7.10
2023-04-06T13:05:19.589Z,7.10
2023-04-06T13:07:47.874Z,6.70
2023-04-06T13:10:14.798Z,6.13
2023-04-06T13:12:41.641Z,6.43
2023-04-06T13:15:08.779Z,6.50
2023-04-06T13:17:35.686Z,6.20
2023-04-06T13:20:02.630Z,6.43
2023-04-06T13:22:29.404Z,7.10
2023-04-06T13:24:56.172Z,6.40
2023-04-06T13:27:23.194Z,6.20
2023-04-06T13:29:49.954Z,6.40
2023-04-06T13:32:16.830Z,6.47
2023-04-06T13:34:45.856Z,6.23
2023-04-06T13:37:16.117Z,6.53
2023-04-06T13:39:42.792Z,6.60
2023-04-06T13:42:10.979Z,6.53
2023-04-06T13:44:37.748Z,6.77
2023-04-06T13:47:04.487Z,6.70
2023-04-06T13:49:31.280Z,6.63
2023-04-06T13:51:58.126Z,6.63
2023-04-06T13:54:24.818Z,6.77
2023-04-06T13:56:52.696Z,6.77
2023-04-06T13:59:19.553Z,7.67
2023-04-06T14:01:46.409Z,6.10
2023-04-06T14:04:13.234Z,5.83
2023-04-06T14:06:40.591Z,5.87
2023-04-06T14:09:07.238Z,6.50
2023-04-06T14:11:33.958Z,10.90
2023-04-06T14:14:00.697Z,7.27
2023-04-06T14:16:27.748Z,7.33
2023-04-06T14:18:54.627Z,7.70
2023-04-06T14:21:21.392Z,7.63
2023-04-06T14:23:48.165Z,7.30
2023-04-06T14:26:14.949Z,7.37
2023-04-06T14:28:42.230Z,6.87
2023-04-06T14:31:16.985Z,6.70
2023-04-06T14:33:44.472Z,6.43
2023-04-06T14:36:11.982Z,6.70
2023-04-06T14:38:39.441Z,6.67
2023-04-06T14:41:06.231Z,6.40
2023-04-06T14:43:33.061Z,6.30
2023-04-06T14:46:03.506Z,6.20
2023-04-06T14:48:30.543Z,7.50
2023-04-06T14:50:57.532Z,22.97
2023-04-06T14:53:25.407Z,6.60
2023-04-06T14:55:54.973Z,6.00
2023-04-06T14:58:23.035Z,5.70
2023-04-06T15:00:50.055Z,6.27
2023-04-06T15:03:17.237Z,6.23
2023-04-06T15:05:44.112Z,5.83
2023-04-06T15:08:10.865Z,6.40
2023-04-06T15:10:37.942Z,6.43
2023-04-06T15:13:04.644Z,5.97
2023-04-06T15:15:31.793Z,5.87
2023-04-06T15:17:58.625Z,5.20
2023-04-06T15:20:25.816Z,5.00
2023-04-06T15:22:52.499Z,5.40
2023-04-06T15:25:19.216Z,5.23
2023-04-06T15:27:46.062Z,5.50
2023-04-06T15:30:13.105Z,5.37
2023-04-06T15:32:40.008Z,5.77
2023-04-06T15:35:11.558Z,6.03
2023-04-06T15:37:39.140Z,6.50
2023-04-06T15:40:08.278Z,5.60
2023-04-06T15:42:34.943Z,5.73
2023-04-06T15:45:01.731Z,5.70
2023-04-06T15:47:28.498Z,6.00
2023-04-06T15:49:55.216Z,5.70
2023-04-06T15:52:22.897Z,5.83
2023-04-06T15:54:49.952Z,5.77
2023-04-06T15:57:16.679Z,6.07
2023-04-06T15:59:43.512Z,6.20
2023-04-06T16:02:10.387Z,6.40
2023-04-06T16:04:37.350Z,6.43
2023-04-06T16:07:04.384Z,6.10
2023-04-06T16:09:31.409Z,5.87
2023-04-06T16:11:58.122Z,6.20
2023-04-06T16:14:24.824Z,6.70
2023-04-06T16:16:51.797Z,6.70
2023-04-06T16:19:20.325Z,7.07
2023-04-06T16:21:47.590Z,5.87
2023-04-06T16:24:14.346Z,6.90
2023-04-06T16:26:41.859Z,7.10
2023-04-06T16:29:10.316Z,7.07
2023-04-06T16:31:37.028Z,7.03
2023-04-06T16:34:03.805Z,7.73
2023-04-06T16:36:31.985Z,7.40
2023-04-06T16:38:59.616Z,7.63
2023-04-06T16:41:27.934Z,8.63
2023-04-06T16:43:57.149Z,8.97
2023-04-06T16:46:34.289Z,8.70
2023-04-06T16:49:01.553Z,9.00
2023-04-06T16:51:28.732Z,9.33
2023-04-06T16:53:56.018Z,8.87
2023-04-06T16:56:22.841Z,9.93
2023-04-06T16:58:49.604Z,10.47
2023-04-06T17:01:25.172Z,10.43
2023-04-06T17:03:53.473Z,15.00
2023-04-06T17:06:20.582Z,15.30
2023-04-06T17:08:48.574Z,14.67
2023-04-06T17:11:19.948Z,15.27
2023-04-06T17:13:50.187Z,14.20
2023-04-06T17:16:18.082Z,14.07
2023-04-06T17:18:44.874Z,12.93
2023-04-06T17:21:14.400Z,10.57
2023-04-06T17:23:41.649Z,9.53
2023-04-06T17:26:08.643Z,9.00
2023-04-06T17:28:35.652Z,9.20
2023-04-06T17:31:02.720Z,9.30
2023-04-06T17:33:32.411Z,10.10
2023-04-06T17:35:59.265Z,8.80
2023-04-06T17:38:26.457Z,10.30
2023-04-06T17:40:53.106Z,10.03
2023-04-06T17:43:19.880Z,9.43
2023-04-06T17:45:51.396Z,11.00
2023-04-06T17:48:18.243Z,10.93
2023-04-06T17:50:45.846Z,10.00
2023-04-06T17:53:12.570Z,10.63
2023-04-06T17:55:39.212Z,10.20
2023-04-06T17:58:06.025Z,10.63
2023-04-06T18:00:32.702Z,10.57
2023-04-06T18:02:59.445Z,10.67
2023-04-06T18:05:29.055Z,10.70
2023-04-06T18:07:55.849Z,10.70
2023-04-06T18:10:22.964Z,10.87
2023-04-06T18:12:49.977Z,12.10
2023-04-06T18:15:17.015Z,12.80
2023-04-06T18:17:45.238Z,11.20
2023-04-06T18:20:14.076Z,12.50
2023-04-06T18:22:41.943Z,11.67
2023-04-06T18:25:08.978Z,12.17
2023-04-06T18:27:35.889Z,12.33
2023-04-06T18:30:03.718Z,12.20
2023-04-06T18:32:30.619Z,11.90
2023-04-06T18:34:58.350Z,12.47
2023-04-06T18:37:26.150Z,13.10
2023-04-06T18:39:54.456Z,13.60
2023-04-06T18:42:21.186Z,12.90
2023-04-06T18:44:48.375Z,13.70
2023-04-06T18:47:15.569Z,14.70
2023-04-06T18:49:46.136Z,13.03
2023-04-06T18:52:12.966Z,13.43
2023-04-06T18:54:39.607Z,11.50
2023-04-06T18:57:06.293Z,13.10
2023-04-06T18:59:33.046Z,13.03
2023-04-06T19:01:59.941Z,12.87
2023-04-06T19:04:27.058Z,14.37
2023-04-06T19:06:55.310Z,13.17
2023-04-06T19:09:22.145Z,14.47
2023-04-06T19:11:48.893Z,14.00
2023-04-06T19:14:15.578Z,13.53
2023-04-06T19:16:43.923Z,14.07
2023-04-06T19:19:12.202Z,15.13
2023-04-06T19:21:38.863Z,13.17
2023-04-06T19:24:06.022Z,13.47
2023-04-06T19:26:34.106Z,13.57
2023-04-06T19:29:01.836Z,13.70
2023-04-06T19:31:28.583Z,12.30
2023-04-06T19:33:55.618Z,13.70
2023-04-06T19:36:22.387Z,13.60
2023-04-06T19:38:49.237Z,13.53
2023-04-06T19:41:15.985Z,12.63
2023-04-06T19:43:42.798Z,12.40
2023-04-06T19:46:10.449Z,12.40
2023-04-06T19:48:37.121Z,12.80
2023-04-06T19:51:06.175Z,12.03
2023-04-06T19:53:32.990Z,12.50
2023-04-06T19:55:59.755Z,12.57
2023-04-06T19:58:26.510Z,11.93
2023-04-06T20:00:53.265Z,11.87
2023-04-06T20:03:20.043Z,11.50
2023-04-06T20:05:46.808Z,11.23
2023-04-06T20:08:14.007Z,11.87
2023-04-06T20:10:40.852Z,11.23
2023-04-06T20:13:07.563Z,10.43
2023-04-06T20:15:34.209Z,11.30
2023-04-06T20:18:00.910Z,10.83
2023-04-06T20:20:27.593Z,10.87
2023-04-06T20:22:54.295Z,9.77
2023-04-06T20:25:21.911Z,10.43
2023-04-06T20:27:49.077Z,10.47
2023-04-06T20:30:16.521Z,9.13
2023-04-06T20:32:43.322Z,8.67
2023-04-06T20:35:10.484Z,9.43
2023-04-06T20:37:37.870Z,9.03
2023-04-06T20:40:05.313Z,8.33
2023-04-06T20:42:32.070Z,8.80
2023-04-06T20:44:59.465Z,8.67
2023-04-06T20:47:27.166Z,8.73
2023-04-06T20:49:54.489Z,8.47
2023-04-06T20:52:21.293Z,8.23
2023-04-06T20:54:48.546Z,8.67
2023-04-06T20:57:15.430Z,8.63
2023-04-06T20:59:42.241Z,8.97
2023-04-06T21:02:09.083Z,7.70
2023-04-06T21:04:36.368Z,8.57
2023-04-06T21:07:07.164Z,8.00
2023-04-06T21:09:38.696Z,8.83
2023-04-06T21:12:06.741Z,8.50
2023-04-06T21:14:34.373Z,8.50
2023-04-06T21:17:01.169Z,9.27
2023-04-06T21:19:28.302Z,8.70
2023-04-06T21:21:55.486Z,8.83
2023-04-06T21:24:22.310Z,9.20
2023-04-06T21:26:49.084Z,9.10
2023-04-06T21:29:15.838Z,9.50
2023-04-06T21:31:42.744Z,8.70
2023-04-06T21:34:12.969Z,9.30
2023-04-06T21:36:41.224Z,9.43
2023-04-06T21:39:08.430Z,9.67
2023-04-06T21:41:35.272Z,10.20
2023-04-06T21:44:02.008Z,10.47
2023-04-06T21:46:28.980Z,9.83
2023-04-06T21:48:55.953Z,10.90
2023-04-06T21:51:23.365Z,10.23
2023-04-06T21:53:51.693Z,10.93
2023-04-06T21:56:25.855Z,11.20
2023-04-06T21:58:53.238Z,9.23
2023-04-06T22:01:20.764Z,12.20
2023-04-06T22:03:47.800Z,10.33
2023-04-06T22:06:14.916Z,10.23
2023-04-06T22:08:42.262Z,10.20
2023-04-06T22:11:11.163Z,11.63
2023-04-06T22:13:38.628Z,11.10
2023-04-06T22:16:06.448Z,12.27
2023-04-06T22:18:33.370Z,10.97
2023-04-06T22:21:01.001Z,10.97
2023-04-06T22:23:27.677Z,12.77
2023-04-06T22:25:54.471Z,13.87
2023-04-06T22:28:21.335Z,12.93
2023-04-06T22:30:48.023Z,12.27
2023-04-06T22:33:14.733Z,11.63
2023-04-06T22:35:41.606Z,12.97
2023-04-06T22:38:08.337Z,14.07
2023-04-06T22:40:35.160Z,13.27
2023-04-06T22:43:01.845Z,14.63
2023-04-06T22:45:28.645Z,14.93
2023-04-06T22:47:55.388Z,14.10
2023-04-06T22:50:22.450Z,15.97
2023-04-06T22:52:49.247Z,14.83
2023-04-06T22:55:16.317Z,15.73
2023-04-06T22:57:43.075Z,15.20
2023-04-06T23:00:10.531Z,16.33
2023-04-06T23:02:37.342Z,14.00
2023-04-06T23:05:04.373Z,15.90
2023-04-06T23:07:32.601Z,15.50
2023-04-06T23:09:59.563Z,17.17
2023-04-06T23:12:26.431Z,13.60
2023-04-06T23:14:53.598Z,14.40
2023-04-06T23:17:20.326Z,16.07
2023-04-06T23:19:47.257Z,15.43
2023-04-06T23:22:14.009Z,13.80
2023-04-06T23:24:40.774Z,14.73
2023-04-06T23:27:07.487Z,14.47
2023-04-06T23:29:34.291Z,14.10
2023-04-06T23:32:01.378Z,15.17
2023-04-06T23:34:28.151Z,13.30
2023-04-06T23:36:55.094Z,14.30
2023-04-06T23:39:40.644Z,12.77
2023-04-06T23:42:07.420Z,12.60
2023-04-06T23:44:34.291Z,12.93
2023-04-06T23:47:01.051Z,12.20
2023-04-06T23:49:27.921Z,11.97
2023-04-06T23:51:54.870Z,13.97
2023-04-06T23:54:22.072Z,15.23
2023-04-06T23:56:50.572Z,14.30
2023-04-06T23:59:17.598Z,14.13
